Time;durP1;ratioP1;P1;durP2;ratioP2;P2;SDS_P1;SDS_P2;PMS_P1;PMS_P2;Temp;Humidity;BMP_temperature;BMP_pressure;BME280_temperature;BME280_humidity;BME280_pressure;Samples;Min_cycle;Max_cycle;Signal;HPM_P1;HPM_P2
2022/06/06 00:01:53;;;;;;;4.22;3.20;;;;;;;;;;5055100;28;20033;-83
2022/06/06 00:04:20;;;;;;;4.93;3.15;;;;;;;;;;5053974;28;20029;-84
2022/06/06 00:06:46;;;;;;;3.88;3.28;;;;;;;;;;5053804;28;20096;-84
2022/06/06 00:09:13;;;;;;;4.05;3.25;;;;;;;;;;5037078;28;20124;-84
2022/06/06 00:11:39;;;;;;;3.55;2.97;;;;;;;;;;5053392;28;20047;-84
2022/06/06 00:14:08;;;;;;;4.75;3.40;;;;;;;;;;5036909;28;20037;-84
2022/06/06 00:16:35;;;;;;;3.67;3.20;;;;;;;;;;5053306;28;20115;-84
2022/06/06 00:19:01;;;;;;;4.40;2.97;;;;;;;;;;5037094;28;20074;-85
2022/06/06 00:21:27;;;;;;;3.60;3.17;;;;;;;;;;5055147;28;20033;-84
2022/06/06 00:23:53;;;;;;;2.97;2.70;;;;;;;;;;5054646;28;20453;-84
2022/06/06 00:26:18;;;;;;;3.25;2.92;;;;;;;;;;5054805;28;20106;-84
2022/06/06 00:28:44;;;;;;;4.70;3.17;;;;;;;;;;5054614;28;20064;-84
2022/06/06 00:36:46;;;;;;;;;;;;;;;;;;5039973;28;20044;-85
2022/06/06 00:39:13;;;;;;;2.63;2.42;;;;;;;;;;5052928;28;19908;-85
2022/06/06 00:41:46;;;;;;;3.10;2.80;;;;;;;;;;5036333;28;20024;-84
2022/06/06 00:44:14;;;;;;;4.72;2.95;;;;;;;;;;5052968;28;20033;-83
2022/06/06 00:46:44;;;;;;;5.35;3.08;;;;;;;;;;5052773;28;20059;-83
2022/06/06 00:49:38;;;;;;;4.38;3.20;;;;;;;;;;5052818;28;20060;-83
2022/06/06 00:52:08;;;;;;;3.33;2.77;;;;;;;;;;5049938;28;20040;-82
2022/06/06 00:54:34;;;;;;;4.53;3.28;;;;;;;;;;5052961;28;20044;-83
2022/06/06 00:57:03;;;;;;;4.25;3.22;;;;;;;;;;5053100;28;20021;-83
2022/06/06 00:59:31;;;;;;;4.00;3.35;;;;;;;;;;5054324;28;20025;-83
2022/06/06 01:01:57;;;;;;;4.10;3.10;;;;;;;;;;5053119;28;20088;-84
2022/06/06 01:04:25;;;;;;;4.18;2.88;;;;;;;;;;5051993;28;20052;-84
2022/06/06 01:06:51;;;;;;;4.75;3.28;;;;;;;;;;5052758;28;20021;-86
2022/06/06 01:09:19;;;;;;;4.30;3.13;;;;;;;;;;5054100;28;20052;-83
2022/06/06 01:11:59;;;;;;;4.68;3.25;;;;;;;;;;5036187;28;20080;-83
2022/06/06 01:14:29;;;;;;;3.97;3.13;;;;;;;;;;5052910;28;20096;-83
2022/06/06 01:17:05;;;;;;;4.80;3.50;;;;;;;;;;5052333;28;20098;-85
2022/06/06 01:19:42;;;;;;;5.18;3.30;;;;;;;;;;5052450;28;20082;-83
2022/06/06 01:22:26;;;;;;;5.88;3.53;;;;;;;;;;5053816;28;20032;-85
2022/06/06 01:25:18;;;;;;;4.80;3.55;;;;;;;;;;5053386;28;20025;-84
2022/06/06 01:28:02;;;;;;;4.15;3.13;;;;;;;;;;5053202;28;20028;-85
2022/06/06 01:30:32;;;;;;;3.65;3.17;;;;;;;;;;5053305;28;20093;-85
2022/06/06 01:33:01;;;;;;;6.57;3.60;;;;;;;;;;5052120;28;20029;-85
2022/06/06 01:35:34;;;;;;;4.10;3.63;;;;;;;;;;5051999;28;20025;-84
2022/06/06 01:38:00;;;;;;;7.18;3.53;;;;;;;;;;5052682;28;20035;-83
2022/06/06 01:40:40;;;;;;;4.82;3.25;;;;;;;;;;5052492;28;20461;-85
2022/06/06 01:43:10;;;;;;;3.67;3.17;;;;;;;;;;5035533;28;20542;-85
2022/06/06 01:45:50;;;;;;;4.28;3.13;;;;;;;;;;5051917;28;20055;-82
2022/06/06 01:48:23;;;;;;;6.32;4.38;;;;;;;;;;5051746;28;20023;-85
2022/06/06 01:50:49;;;;;;;4.68;3.50;;;;;;;;;;5051710;28;20025;-83
2022/06/06 01:53:18;;;;;;;6.15;3.67;;;;;;;;;;5053126;28;20401;-84
2022/06/06 01:55:45;;;;;;;5.30;3.72;;;;;;;;;;5052107;28;20092;-82
2022/06/06 01:58:23;;;;;;;4.18;3.60;;;;;;;;;;5051801;28;20017;-82
2022/06/06 02:00:48;;;;;;;8.48;3.83;;;;;;;;;;5035321;28;20405;-82
2022/06/06 02:03:14;;;;;;;5.15;3.58;;;;;;;;;;5035158;28;20036;-81
2022/06/06 02:05:39;;;;;;;4.70;3.58;;;;;;;;;;5034981;28;20396;-82
2022/06/06 02:08:06;;;;;;;4.65;3.80;;;;;;;;;;5051761;28;20032;-82
2022/06/06 02:10:31;;;;;;;5.65;3.85;;;;;;;;;;5051551;28;20055;-81
2022/06/06 02:12:57;;;;;;;4.85;3.80;;;;;;;;;;5034738;28;20484;-82
2022/06/06 02:15:24;;;;;;;6.57;3.72;;;;;;;;;;5053670;28;20046;-86
2022/06/06 02:17:51;;;;;;;5.43;3.90;;;;;;;;;;5058292;28;20056;-86
2022/06/06 02:20:18;;;;;;;5.88;4.03;;;;;;;;;;5039183;28;20024;-86
2022/06/06 02:22:44;;;;;;;5.25;3.78;;;;;;;;;;5056815;28;20112;-86
2022/06/06 02:25:11;;;;;;;5.47;3.88;;;;;;;;;;5055696;28;20132;-85
2022/06/06 02:27:37;;;;;;;6.45;3.53;;;;;;;;;;5056887;28;20029;-86
2022/06/06 02:30:05;;;;;;;4.88;3.75;;;;;;;;;;5055778;28;20361;-85
2022/06/06 02:32:31;;;;;;;4.20;3.45;;;;;;;;;;5055524;28;20071;-85
2022/06/06 02:34:57;;;;;;;6.07;4.15;;;;;;;;;;5056652;28;20442;-85
2022/06/06 02:37:22;;;;;;;5.32;4.00;;;;;;;;;;5039268;28;20025;-85
2022/06/06 02:39:48;;;;;;;4.15;3.60;;;;;;;;;;5055460;28;20028;-85
2022/06/06 02:42:13;;;;;;;4.38;3.55;;;;;;;;;;5055450;28;20025;-83
2022/06/06 02:44:38;;;;;;;5.20;3.78;;;;;;;;;;5055400;28;20025;-85
2022/06/06 02:47:04;;;;;;;5.10;3.67;;;;;;;;;;5056686;28;20090;-85
2022/06/06 02:49:33;;;;;;;6.38;3.90;;;;;;;;;;5038487;28;20059;-84
2022/06/06 02:51:59;;;;;;;6.47;3.92;;;;;;;;;;5056634;28;20418;-83
2022/06/06 02:54:25;;;;;;;5.43;4.43;;;;;;;;;;5056919;28;20465;-84
2022/06/06 02:56:50;;;;;;;4.82;3.72;;;;;;;;;;5056449;28;20032;-83
2022/06/06 02:59:18;;;;;;;5.32;3.72;;;;;;;;;;5056440;28;20032;-83
2022/06/06 03:01:43;;;;;;;5.10;4.00;;;;;;;;;;5055139;28;20074;-83
2022/06/06 03:04:09;;;;;;;5.55;4.18;;;;;;;;;;5055182;28;20037;-85
2022/06/06 03:07:04;;;;;;;5.68;3.97;;;;;;;;;;5021546;28;20035;-85
2022/06/06 03:09:45;;;;;;;7.03;4.00;;;;;;;;;;5054853;28;20024;-85
2022/06/06 03:12:10;;;;;;;4.95;3.80;;;;;;;;;;5055856;28;20017;-84
2022/06/06 03:14:46;;;;;;;4.22;3.83;;;;;;;;;;5056072;28;20431;-84
2022/06/06 03:20:58;;;;;;;6.25;4.10;;;;;;;;;;5056117;28;20079;-83
2022/06/06 03:23:59;;;;;;;5.47;3.78;;;;;;;;;;5023939;28;20040;-83
2022/06/06 03:26:52;;;;;;;6.47;3.70;;;;;;;;;;5035467;28;20058;-83
2022/06/06 03:29:37;;;;;;;6.35;4.22;;;;;;;;;;5054023;28;20036;-85
2022/06/06 03:32:18;;;;;;;5.22;4.13;;;;;;;;;;5055466;28;20021;-84
2022/06/06 03:34:52;;;;;;;6.25;4.03;;;;;;;;;;5055716;28;20025;-82
2022/06/06 03:37:32;;;;;;;;;;;;;;;;;;5055872;28;20017;-83
2022/06/06 03:40:26;;;;;;;6.13;3.78;;;;;;;;;;5054395;28;20372;-84
2022/06/06 03:42:53;;;;;;;5.07;3.88;;;;;;;;;;5054118;28;20051;-85
2022/06/06 03:45:47;;;;;;;7.00;3.85;;;;;;;;;;5056481;28;20392;-85
2022/06/06 03:48:35;;;;;;;4.32;3.65;;;;;;;;;;5049448;28;20071;-86
2022/06/06 03:51:11;;;;;;;4.78;3.50;;;;;;;;;;5055136;28;20057;-86
2022/06/06 03:53:56;;;;;;;5.35;4.00;;;;;;;;;;5055625;28;20027;-85
2022/06/06 03:57:07;;;;;;;4.78;3.78;;;;;;;;;;5055348;28;20051;-86
2022/06/06 03:59:34;;;;;;;4.97;3.47;;;;;;;;;;5049672;28;20040;-85
2022/06/06 04:02:02;;;;;;;5.85;4.00;;;;;;;;;;5054062;28;20032;-85
2022/06/06 04:04:29;;;;;;;6.50;3.40;;;;;;;;;;5037166;28;20027;-83
2022/06/06 04:06:57;;;;;;;5.70;4.30;;;;;;;;;;5053938;28;20035;-84
2022/06/06 04:09:23;;;;;;;5.57;3.97;;;;;;;;;;5054093;28;20021;-84
2022/06/06 04:11:57;;;;;;;4.78;3.97;;;;;;;;;;5055130;28;20029;-84
2022/06/06 04:14:43;;;;;;;5.90;3.70;;;;;;;;;;5054929;28;20056;-84
2022/06/06 04:17:09;;;;;;;5.07;3.95;;;;;;;;;;5053079;28;20497;-84
2022/06/06 04:20:02;;;;;;;5.22;4.00;;;;;;;;;;5053419;28;20033;-82
2022/06/06 04:22:58;;;;;;;6.03;3.88;;;;;;;;;;5054914;28;20071;-83
2022/06/06 04:25:42;;;;;;;6.03;3.97;;;;;;;;;;5054546;28;20031;-82
2022/06/06 04:28:29;;;;;;;7.75;3.90;;;;;;;;;;5054471;28;20152;-82
2022/06/06 04:31:12;;;;;;;5.10;4.05;;;;;;;;;;5053589;28;20048;-83
2022/06/06 04:33:46;;;;;;;6.50;3.80;;;;;;;;;;5053659;28;20423;-84
2022/06/06 04:36:28;;;;;;;6.30;4.10;;;;;;;;;;5055238;28;20068;-84
2022/06/06 04:39:05;;;;;;;4.95;3.45;;;;;;;;;;5053814;28;20086;-84
2022/06/06 04:41:39;;;;;;;5.30;3.90;;;;;;;;;;5053470;28;20134;-84
2022/06/06 04:44:20;;;;;;;5.70;4.15;;;;;;;;;;5053571;28;20036;-84
2022/06/06 04:46:55;;;;;;;5.72;4.22;;;;;;;;;;5054522;28;20116;-84
2022/06/06 04:49:21;;;;;;;4.85;3.88;;;;;;;;;;5054284;28;20064;-84
2022/06/06 04:51:47;;;;;;;6.28;4.13;;;;;;;;;;5020141;28;20059;-84
2022/06/06 04:54:15;;;;;;;5.75;4.40;;;;;;;;;;5053811;28;20040;-84
2022/06/06 04:56:43;;;;;;;5.32;4.20;;;;;;;;;;5053539;28;20447;-83
2022/06/06 04:59:10;;;;;;;5.50;3.72;;;;;;;;;;5053313;28;20029;-83
2022/06/06 05:01:37;;;;;;;6.22;3.92;;;;;;;;;;5036451;28;20029;-83
2022/06/06 05:04:03;;;;;;;5.57;4.15;;;;;;;;;;5054002;28;20025;-83
2022/06/06 05:06:44;;;;;;;6.47;4.43;;;;;;;;;;5055235;28;20032;-83
2022/06/06 05:09:45;;;;;;;5.57;4.10;;;;;;;;;;5055265;28;20017;-84
2022/06/06 05:12:48;;;;;;;4.35;3.75;;;;;;;;;;5055220;28;20021;-84
2022/06/06 05:15:38;;;;;;;4.80;3.58;;;;;;;;;;5056821;28;20056;-85
2022/06/06 05:18:22;;;;;;;6.25;4.20;;;;;;;;;;5057060;28;20040;-83
2022/06/06 05:21:09;;;;;;;5.55;4.13;;;;;;;;;;5055848;28;20020;-83
2022/06/06 05:23:43;;;;;;;5.40;4.03;;;;;;;;;;5054409;28;20033;-82
2022/06/06 05:26:44;;;;;;;6.85;4.18;;;;;;;;;;5056216;28;20090;-82
2022/06/06 05:29:27;;;;;;;7.22;4.38;;;;;;;;;;5012547;28;20090;-83
2022/06/06 05:32:04;;;;;;;7.28;4.38;;;;;;;;;;5054437;28;20496;-83
2022/06/06 05:34:38;;;;;;;6.97;4.43;;;;;;;;;;5056109;28;20059;-82
2022/06/06 05:37:29;;;;;;;;;;;;;;;;;;5055731;28;20024;-83
2022/06/06 05:40:16;;;;;;;5.13;3.80;;;;;;;;;;5052480;28;19982;-82
2022/06/06 05:43:04;;;;;;;7.55;4.53;;;;;;;;;;5054232;28;20078;-82
2022/06/06 05:45:42;;;;;;;6.00;3.95;;;;;;;;;;5054324;28;20036;-83
2022/06/06 05:48:29;;;;;;;5.70;4.53;;;;;;;;;;5054146;28;20538;-83
2022/06/06 05:51:16;;;;;;;6.00;4.20;;;;;;;;;;5054535;28;20029;-84
2022/06/06 05:54:09;;;;;;;6.22;4.07;;;;;;;;;;5054831;28;20496;-83
2022/06/06 05:56:53;;;;;;;7.38;4.45;;;;;;;;;;5056541;28;20057;-84
2022/06/06 05:59:49;;;;;;;6.82;4.00;;;;;;;;;;5055692;28;20024;-82
2022/06/06 06:02:33;;;;;;;5.68;3.50;;;;;;;;;;5056593;28;20029;-85
2022/06/06 06:05:25;;;;;;;6.00;3.20;;;;;;;;;;5056951;28;20484;-86
2022/06/06 06:08:15;;;;;;;6.20;3.67;;;;;;;;;;5025308;28;20142;-86
2022/06/06 06:10:57;;;;;;;5.07;3.97;;;;;;;;;;5054932;28;20024;-80
2022/06/06 06:13:37;;;;;;;5.20;3.60;;;;;;;;;;5055262;28;20037;-84
2022/06/06 06:16:04;;;;;;;5.40;3.72;;;;;;;;;;5056688;28;20149;-82
2022/06/06 06:18:37;;;;;;;5.15;3.45;;;;;;;;;;5054757;28;20021;-82
2022/06/06 06:21:29;;;;;;;5.13;3.80;;;;;;;;;;5054794;28;20500;-81
2022/06/06 06:24:08;;;;;;;6.55;3.25;;;;;;;;;;5050776;28;20052;-80
2022/06/06 06:26:35;;;;;;;4.95;3.47;;;;;;;;;;5054393;28;20061;-81
2022/06/06 06:29:06;;;;;;;6.60;3.22;;;;;;;;;;5037734;28;20071;-81
2022/06/06 06:31:46;;;;;;;5.75;2.90;;;;;;;;;;5054315;28;20033;-80
2022/06/06 06:34:20;;;;;;;6.53;3.38;;;;;;;;;;5053745;28;20059;-84
2022/06/06 06:36:49;;;;;;;4.93;2.80;;;;;;;;;;5055143;28;20032;-81
2022/06/06 06:39:48;;;;;;;4.82;3.00;;;;;;;;;;5055208;28;20039;-81
2022/06/06 06:42:29;;;;;;;6.90;3.60;;;;;;;;;;5055823;28;20126;-81
2022/06/06 06:45:02;;;;;;;3.25;2.40;;;;;;;;;;5055951;28;20037;-82
2022/06/06 06:47:29;;;;;;;;;;;;;;;;;;5055011;28;20528;-83
2022/06/06 06:50:33;;;;;;;8.18;3.03;;;;;;;;;;5037999;28;20288;-82
2022/06/06 06:53:08;;;;;;;6.38;3.17;;;;;;;;;;5054702;28;20032;-79
2022/06/06 06:56:01;;;;;;;5.53;3.00;;;;;;;;;;5054198;28;20040;-78
2022/06/06 06:58:31;;;;;;;4.97;2.40;;;;;;;;;;5037691;28;20108;-79
2022/06/06 07:01:06;;;;;;;3.35;2.10;;;;;;;;;;5055235;28;20365;-80
2022/06/06 07:09:48;;;;;;;5.38;1.98;;;;;;;;;;5060418;28;20090;-79
2022/06/06 07:12:28;;;;;;;5.95;1.90;;;;;;;;;;5059609;28;20078;-79
2022/06/06 07:15:13;;;;;;;6.75;2.13;;;;;;;;;;5059431;28;20071;-79
2022/06/06 07:17:45;;;;;;;4.18;2.25;;;;;;;;;;5059899;28;20067;-80
2022/06/06 07:20:13;;;;;;;5.47;2.53;;;;;;;;;;5059272;28;20540;-81
2022/06/06 07:25:26;;;;;;;5.60;2.22;;;;;;;;;;5058600;28;20039;-81
2022/06/06 07:27:51;;;;;;;4.80;2.55;;;;;;;;;;5058862;28;20028;-80
2022/06/06 07:30:18;;;;;;;5.80;2.20;;;;;;;;;;5041356;28;20033;-79
2022/06/06 07:33:01;;;;;;;5.40;2.20;;;;;;;;;;5040236;28;20465;-79
2022/06/06 07:35:41;;;;;;;4.78;2.50;;;;;;;;;;5057930;28;20079;-80
2022/06/06 07:38:13;;;;;;;8.52;2.50;;;;;;;;;;5058735;28;20065;-83
2022/06/06 07:40:49;;;;;;;4.07;1.95;;;;;;;;;;5058283;28;20029;-83
2022/06/06 07:43:40;;;;;;;3.67;1.88;;;;;;;;;;5054643;28;20036;-82
2022/06/06 07:46:17;;;;;;;3.58;1.70;;;;;;;;;;5054699;28;20059;-79
2022/06/06 07:48:51;;;;;;;4.32;1.90;;;;;;;;;;5038783;28;20112;-81
2022/06/06 07:51:36;;;;;;;3.20;1.80;;;;;;;;;;5055905;28;20116;-81
2022/06/06 07:54:01;;;;;;;6.88;1.83;;;;;;;;;;5060767;28;20029;-82
2022/06/06 07:56:42;;;;;;;3.22;1.75;;;;;;;;;;5054491;28;20028;-80
2022/06/06 07:59:16;;;;;;;3.90;1.38;;;;;;;;;;5054583;28;20107;-81
2022/06/06 08:01:45;;;;;;;4.70;2.17;;;;;;;;;;5054175;28;20033;-81
2022/06/06 08:04:22;;;;;;;3.55;1.67;;;;;;;;;;5055432;28;20029;-81
2022/06/06 08:07:18;;;;;;;4.10;2.00;;;;;;;;;;5055630;28;20078;-81
2022/06/06 08:10:13;;;;;;;6.53;2.00;;;;;;;;;;5056812;28;20457;-82
2022/06/06 08:12:47;;;;;;;6.13;2.03;;;;;;;;;;5053827;28;20036;-80
2022/06/06 08:15:37;;;;;;;8.15;2.30;;;;;;;;;;5054824;28;20048;-82
2022/06/06 08:18:24;;;;;;;6.55;1.50;;;;;;;;;;5054028;28;20021;-82
2022/06/06 08:21:00;;;;;;;3.92;1.55;;;;;;;;;;5055316;28;20461;-82
2022/06/06 08:23:27;;;;;;;3.83;1.73;;;;;;;;;;5036985;28;20029;-82
2022/06/06 08:25:54;;;;;;;3.33;1.30;;;;;;;;;;5020649;28;20037;-82
2022/06/06 08:28:20;;;;;;;1.73;1.20;;;;;;;;;;5053572;28;20056;-82
2022/06/06 08:30:46;;;;;;;2.80;1.55;;;;;;;;;;5054180;28;20067;-81
2022/06/06 08:33:11;;;;;;;4.32;1.60;;;;;;;;;;5053801;28;20036;-81
2022/06/06 08:35:43;;;;;;;1.85;1.00;;;;;;;;;;5054765;28;20025;-81
2022/06/06 08:38:39;;;;;;;2.78;1.10;;;;;;;;;;5036987;28;20031;-81
2022/06/06 08:41:04;;;;;;;3.03;1.30;;;;;;;;;;5053945;28;20020;-81
2022/06/06 08:43:58;;;;;;;2.20;1.20;;;;;;;;;;5053432;28;20036;-82
2022/06/06 08:46:47;;;;;;;4.63;1.35;;;;;;;;;;5054713;28;20131;-81
2022/06/06 08:52:33;;;;;;;2.22;1.20;;;;;;;;;;5054516;28;20082;-81
2022/06/06 08:55:21;;;;;;;2.38;1.10;;;;;;;;;;5053065;28;20024;-81
2022/06/06 08:58:18;;;;;;;1.20;1.10;;;;;;;;;;5042611;28;20032;-82
2022/06/06 09:01:03;;;;;;;1.30;1.20;;;;;;;;;;5036322;28;20023;-81
2022/06/06 09:03:45;;;;;;;1.30;0.90;;;;;;;;;;5053984;28;20024;-82
2022/06/06 09:06:13;;;;;;;2.88;1.00;;;;;;;;;;5054471;28;20028;-81
2022/06/06 09:09:14;;;;;;;1.80;1.00;;;;;;;;;;5053227;28;20034;-82
2022/06/06 09:12:00;;;;;;;2.40;1.20;;;;;;;;;;5052830;28;20084;-82
2022/06/06 09:14:42;;;;;;;1.00;0.90;;;;;;;;;;5052922;28;20439;-82
2022/06/06 09:17:42;;;;;;;1.85;0.82;;;;;;;;;;5052517;28;20436;-82
2022/06/06 09:20:32;;;;;;;1.40;0.88;;;;;;;;;;5038442;28;20120;-82
2022/06/06 09:23:13;;;;;;;1.08;0.98;;;;;;;;;;5052799;28;20071;-83
2022/06/06 09:26:06;;;;;;;3.33;1.10;;;;;;;;;;5059440;28;20029;-84
2022/06/06 09:28:51;;;;;;;4.55;1.15;;;;;;;;;;5057057;28;20029;-84
2022/06/06 09:31:41;;;;;;;5.22;1.70;;;;;;;;;;5056488;28;20033;-83
2022/06/06 09:34:37;;;;;;;8.57;1.33;;;;;;;;;;5055456;28;20027;-82
2022/06/06 09:37:38;;;;;;;3.03;1.20;;;;;;;;;;5055572;28;20017;-81
2022/06/06 09:40:40;;;;;;;9.85;2.10;;;;;;;;;;4994737;28;20026;-82
2022/06/06 09:43:18;;;;;;;3.70;1.13;;;;;;;;;;5055984;28;20021;-85
2022/06/06 09:45:52;;;;;;;2.63;1.10;;;;;;;;;;5038540;28;20036;-84
2022/06/06 09:48:30;;;;;;;7.78;1.20;;;;;;;;;;5056478;28;20047;-86
2022/06/06 09:51:27;;;;;;;2.97;1.02;;;;;;;;;;5070983;28;20465;-85
2022/06/06 09:59:55;;;;;;;1.83;1.20;;;;;;;;;;5048101;28;20025;-83
2022/06/06 10:02:44;;;;;;;4.63;1.00;;;;;;;;;;5057604;28;20028;-83
2022/06/06 10:05:28;;;;;;;1.88;0.98;;;;;;;;;;5062244;28;20025;-84
2022/06/06 10:08:28;;;;;;;1.80;0.80;;;;;;;;;;5062983;28;20021;-83
2022/06/06 10:10:56;;;;;;;2.00;1.00;;;;;;;;;;5065103;28;20093;-82
2022/06/06 10:13:51;;;;;;;1.02;0.90;;;;;;;;;;5064237;28;20043;-83
2022/06/06 10:16:24;;;;;;;2.97;1.08;;;;;;;;;;5049842;28;20053;-84
2022/06/06 10:19:26;;;;;;;1.05;0.95;;;;;;;;;;5047866;28;20100;-83
2022/06/06 10:22:25;;;;;;;4.15;0.90;;;;;;;;;;5063407;28;20044;-84
2022/06/06 10:25:29;;;;;;;1.23;0.90;;;;;;;;;;5062140;28;20122;-82
2022/06/06 10:28:03;;;;;;;8.10;0.90;;;;;;;;;;5065825;28;20021;-83
2022/06/06 10:30:37;;;;;;;16.33;1.15;;;;;;;;;;5068985;28;20032;-82
2022/06/06 10:33:21;;;;;;;2.53;0.90;;;;;;;;;;5067194;28;20035;-81
2022/06/06 10:35:59;;;;;;;;;;;;;;;;;;5065341;28;20045;-80
2022/06/06 10:39:02;;;;;;;1.23;0.90;;;;;;;;;;5074013;28;20410;-83
2022/06/06 10:41:46;;;;;;;1.15;0.80;;;;;;;;;;5071970;28;20025;-81
2022/06/06 10:44:57;;;;;;;1.38;0.90;;;;;;;;;;5055548;28;20063;-84
2022/06/06 10:47:23;;;;;;;5.72;0.85;;;;;;;;;;5075129;28;20025;-81
2022/06/06 10:50:02;;;;;;;2.45;1.00;;;;;;;;;;5075135;28;20051;-81
2022/06/06 10:52:49;;;;;;;1.00;0.80;;;;;;;;;;5074362;28;20035;-82
2022/06/06 10:55:27;;;;;;;2.53;0.90;;;;;;;;;;5069166;28;20061;-84
2022/06/06 10:58:14;;;;;;;2.67;0.90;;;;;;;;;;5069494;28;20021;-81
2022/06/06 11:00:58;;;;;;;1.25;1.15;;;;;;;;;;5064790;28;20473;-81
2022/06/06 11:03:46;;;;;;;1.77;1.17;;;;;;;;;;5071832;28;20025;-85
2022/06/06 11:06:22;;;;;;;1.52;1.15;;;;;;;;;;5052157;28;20044;-82
2022/06/06 11:09:23;;;;;;;3.20;0.82;;;;;;;;;;5053532;28;20052;-84
2022/06/06 11:12:00;;;;;;;1.20;0.73;;;;;;;;;;5071718;28;20052;-85
2022/06/06 11:14:41;;;;;;;3.35;0.88;;;;;;;;;;5066886;28;20033;-80
2022/06/06 11:17:29;;;;;;;3.55;0.90;;;;;;;;;;5047433;28;20450;-82
2022/06/06 11:20:09;;;;;;;0.60;0.60;;;;;;;;;;5049549;28;20013;-82
2022/06/06 11:22:38;;;;;;;2.72;1.00;;;;;;;;;;5067613;28;20033;-82
2022/06/06 11:25:20;;;;;;;1.90;0.80;;;;;;;;;;5064850;28;20025;-83
2022/06/06 11:28:11;;;;;;;0.70;0.65;;;;;;;;;;5065785;28;20112;-83
2022/06/06 11:31:04;;;;;;;1.40;0.80;;;;;;;;;;5067439;28;20028;-81
2022/06/06 11:33:56;;;;;;;1.15;0.80;;;;;;;;;;5065219;28;20027;-81
2022/06/06 11:36:47;;;;;;;1.05;0.80;;;;;;;;;;5063152;28;20039;-83
2022/06/06 11:39:37;;;;;;;2.63;0.70;;;;;;;;;;5061836;28;20049;-80
2022/06/06 11:42:21;;;;;;;3.47;1.13;;;;;;;;;;5062215;28;20091;-81
2022/06/06 11:44:46;;;;;;;;;;;;;;;;;;5062806;28;20044;-80
2022/06/06 11:47:39;;;;;;;1.17;0.80;;;;;;;;;;5064705;28;19917;-81
2022/06/06 11:50:25;;;;;;;0.80;0.70;;;;;;;;;;5064193;28;20032;-80
2022/06/06 11:53:09;;;;;;;1.35;0.88;;;;;;;;;;5063629;28;20059;-81
2022/06/06 11:55:53;;;;;;;2.10;0.73;;;;;;;;;;5061125;28;20511;-81
2022/06/06 11:58:44;;;;;;;1.58;0.70;;;;;;;;;;5062626;28;20029;-81
2022/06/06 12:01:34;;;;;;;0.90;0.70;;;;;;;;;;5062781;28;20029;-81
2022/06/06 12:04:40;;;;;;;1.13;0.65;;;;;;;;;;5063923;28;20099;-82
2022/06/06 12:07:27;;;;;;;0.80;0.80;;;;;;;;;;5003396;28;20106;-82
2022/06/06 12:10:23;;;;;;;1.15;0.90;;;;;;;;;;5058422;28;20048;-83
2022/06/06 12:12:54;;;;;;;1.17;0.95;;;;;;;;;;5054851;28;20029;-83
2022/06/06 12:15:27;;;;;;;2.35;1.17;;;;;;;;;;5056233;28;20163;-83
2022/06/06 12:18:07;;;;;;;4.33;1.00;;;;;;;;;;5055169;28;20028;-83
2022/06/06 12:20:57;;;;;;;1.55;0.80;;;;;;;;;;5056660;28;20265;-83
2022/06/06 12:23:34;;;;;;;3.10;0.95;;;;;;;;;;5055574;28;20020;-83
2022/06/06 12:26:19;;;;;;;0.80;0.80;;;;;;;;;;5055204;28;20029;-82
2022/06/06 12:29:02;;;;;;;1.00;0.80;;;;;;;;;;5056879;28;20127;-83
2022/06/06 12:31:37;;;;;;;1.10;0.70;;;;;;;;;;5056014;28;20025;-81
2022/06/06 12:34:17;;;;;;;1.73;0.70;;;;;;;;;;5055297;28;20020;-81
2022/06/06 12:36:52;;;;;;;0.85;0.80;;;;;;;;;;5037931;28;20028;-81
2022/06/06 12:39:30;;;;;;;1.08;0.82;;;;;;;;;;5054598;28;20070;-80
2022/06/06 12:42:22;;;;;;;1.52;0.80;;;;;;;;;;5054702;28;20025;-82
2022/06/06 12:45:03;;;;;;;1.00;0.90;;;;;;;;;;5056600;28;20427;-84
2022/06/06 12:47:48;;;;;;;0.85;0.70;;;;;;;;;;5054397;28;20461;-80
2022/06/06 12:50:28;;;;;;;1.70;0.90;;;;;;;;;;5038071;28;20464;-81
2022/06/06 12:53:12;;;;;;;1.00;0.90;;;;;;;;;;5036984;28;20439;-80
2022/06/06 12:56:21;;;;;;;1.10;0.90;;;;;;;;;;5054833;28;20063;-83
2022/06/06 12:59:06;;;;;;;1.00;0.80;;;;;;;;;;5054647;28;20021;-83
2022/06/06 13:01:43;;;;;;;0.57;0.57;;;;;;;;;;5054524;28;20021;-81
2022/06/06 13:04:23;;;;;;;0.90;0.85;;;;;;;;;;5036807;28;20032;-82
2022/06/06 13:07:05;;;;;;;1.85;0.80;;;;;;;;;;5053084;28;20024;-83
2022/06/06 13:09:49;;;;;;;0.85;0.85;;;;;;;;;;5053396;28;20033;-83
2022/06/06 13:12:40;;;;;;;2.92;0.80;;;;;;;;;;5053230;28;20523;-83
2022/06/06 13:15:08;;;;;;;2.28;0.80;;;;;;;;;;5054773;28;20056;-83
2022/06/06 13:17:57;;;;;;;2.30;0.90;;;;;;;;;;5054843;28;20017;-83
2022/06/06 13:20:55;;;;;;;1.92;1.08;;;;;;;;;;5054170;28;20413;-84
2022/06/06 13:23:58;;;;;;;0.95;0.82;;;;;;;;;;5044720;28;20029;-85
2022/06/06 13:26:51;;;;;;;4.63;1.00;;;;;;;;;;5048442;28;20076;-80
2022/06/06 13:29:34;;;;;;;0.80;0.80;;;;;;;;;;5015531;28;20434;-82
2022/06/06 13:32:07;;;;;;;2.43;1.00;;;;;;;;;;5033493;28;20026;-82
2022/06/06 13:35:03;;;;;;;2.53;1.00;;;;;;;;;;5035162;28;20032;-82
2022/06/06 13:37:46;;;;;;;3.33;1.10;;;;;;;;;;5034860;28;20024;-80
2022/06/06 13:40:21;;;;;;;2.40;0.85;;;;;;;;;;5032641;28;20497;-82
2022/06/06 13:42:55;;;;;;;5.28;1.08;;;;;;;;;;5033756;28;20057;-82
2022/06/06 13:45:33;;;;;;;4.80;1.13;;;;;;;;;;5032653;28;20110;-83
2022/06/06 13:48:06;;;;;;;1.40;0.90;;;;;;;;;;5032220;28;20039;-84
2022/06/06 13:50:57;;;;;;;3.13;0.90;;;;;;;;;;5033773;28;20029;-84
2022/06/06 13:53:25;;;;;;;1.90;1.00;;;;;;;;;;5032338;28;20116;-83
2022/06/06 13:56:25;;;;;;;1.55;1.05;;;;;;;;;;5033610;28;20021;-83
2022/06/06 13:58:59;;;;;;;5.20;1.10;;;;;;;;;;5033881;28;20017;-84
2022/06/06 14:01:24;;;;;;;3.40;1.00;;;;;;;;;;5034030;28;20057;-83
2022/06/06 14:03:53;;;;;;;4.70;1.15;;;;;;;;;;5032452;28;20025;-83
2022/06/06 14:06:38;;;;;;;4.03;1.08;;;;;;;;;;5032534;28;20032;-84
2022/06/06 14:09:03;;;;;;;1.70;0.90;;;;;;;;;;5033613;28;20030;-85
2022/06/06 14:11:48;;;;;;;3.05;0.95;;;;;;;;;;5031641;28;20032;-85
2022/06/06 14:14:16;;;;;;;1.73;0.90;;;;;;;;;;5033952;28;20052;-84
2022/06/06 14:16:45;;;;;;;0.80;0.80;;;;;;;;;;5015662;28;20506;-86
2022/06/06 14:19:12;;;;;;;1.55;0.90;;;;;;;;;;5033719;28;20037;-86
2022/06/06 14:21:45;;;;;;;1.13;0.95;;;;;;;;;;5032511;28;20025;-79
2022/06/06 14:24:12;;;;;;;;;;;;;;;;;;5032982;28;20021;-81
2022/06/06 14:26:38;;;;;;;1.00;0.90;;;;;;;;;;5033343;28;19949;-80
2022/06/06 14:29:22;;;;;;;1.95;0.93;;;;;;;;;;5034270;28;20025;-81
2022/06/06 14:32:07;;;;;;;0.95;0.85;;;;;;;;;;5016563;28;20022;-82
2022/06/06 14:34:42;;;;;;;2.38;0.90;;;;;;;;;;5016449;28;20553;-85
2022/06/06 14:37:19;;;;;;;16.83;1.00;;;;;;;;;;5033139;28;20032;-84
2022/06/06 14:39:49;;;;;;;1.83;0.80;;;;;;;;;;5033203;28;20541;-85
2022/06/06 14:42:18;;;;;;;3.28;0.95;;;;;;;;;;5032911;28;20121;-85
2022/06/06 14:44:47;;;;;;;1.92;0.80;;;;;;;;;;5017649;28;20033;-86
2022/06/06 14:47:21;;;;;;;2.58;0.77;;;;;;;;;;5017299;28;20093;-86
2022/06/06 14:50:45;;;;;;;1.83;0.90;;;;;;;;;;5033972;28;20492;-86
2022/06/06 14:52:36;;;;;;;4.13;0.80;;;;;;;;;;5034400;28;20053;-86
2022/06/06 14:55:04;;;;;;;3.88;0.98;;;;;;;;;;5034057;28;20331;-87
2022/06/06 14:57:32;;;;;;;1.65;1.00;;;;;;;;;;5017810;28;20021;-86
2022/06/06 14:59:59;;;;;;;1.38;0.80;;;;;;;;;;5034069;28;20025;-88
2022/06/06 15:02:27;;;;;;;2.95;0.82;;;;;;;;;;5034746;28;20432;-86
2022/06/06 15:05:14;;;;;;;1.65;0.82;;;;;;;;;;5035326;28;20028;-88
2022/06/06 15:07:45;;;;;;;2.03;0.90;;;;;;;;;;5034742;28;20504;-88
2022/06/06 15:10:41;;;;;;;2.13;0.98;;;;;;;;;;5033869;28;20026;-88
2022/06/06 15:13:06;;;;;;;1.33;0.80;;;;;;;;;;5023009;28;20033;-83
2022/06/06 15:15:33;;;;;;;1.02;0.70;;;;;;;;;;5032564;28;20056;-83
2022/06/06 15:17:59;;;;;;;0.65;0.60;;;;;;;;;;5033273;28;20018;-83
2022/06/06 15:20:28;;;;;;;3.80;0.80;;;;;;;;;;5033513;28;20036;-83
2022/06/06 15:23:21;;;;;;;1.05;0.68;;;;;;;;;;5032459;28;20104;-85
2022/06/06 15:25:54;;;;;;;1.33;0.70;;;;;;;;;;5034738;28;20045;-83
2022/06/06 15:28:39;;;;;;;2.38;0.98;;;;;;;;;;5037587;28;20022;-82
2022/06/06 15:31:28;;;;;;;2.42;0.88;;;;;;;;;;5035718;28;20028;-84
2022/06/06 15:34:11;;;;;;;1.10;1.00;;;;;;;;;;5035993;28;20037;-83
2022/06/06 15:36:52;;;;;;;1.13;0.90;;;;;;;;;;5034952;28;20075;-86
2022/06/06 15:39:39;;;;;;;1.95;0.90;;;;;;;;;;5036389;28;20056;-85
2022/06/06 15:42:16;;;;;;;1.20;0.90;;;;;;;;;;5041559;28;20021;-85
2022/06/06 15:45:01;;;;;;;1.30;1.10;;;;;;;;;;5035050;28;20069;-85
2022/06/06 15:47:37;;;;;;;2.25;1.17;;;;;;;;;;5035561;28;20163;-90
2022/06/06 15:50:28;;;;;;;1.90;1.23;;;;;;;;;;5035018;28;20026;-87
2022/06/06 15:53:17;;;;;;;4.20;1.15;;;;;;;;;;5035802;28;20025;-85
2022/06/06 15:55:52;;;;;;;3.50;1.30;;;;;;;;;;5036526;28;20022;-89
2022/06/06 15:58:47;;;;;;;2.67;0.93;;;;;;;;;;5022785;28;20492;-88
2022/06/06 16:01:26;;;;;;;2.20;1.38;;;;;;;;;;5034945;28;20474;-91
2022/06/06 16:04:15;;;;;;;2.78;1.40;;;;;;;;;;5035821;28;20025;-92
2022/06/06 16:06:42;;;;;;;3.03;1.20;;;;;;;;;;5019225;28;20039;-88
2022/06/06 16:09:30;;;;;;;3.28;1.17;;;;;;;;;;5034604;28;20022;-90
2022/06/06 16:12:07;;;;;;;2.03;1.02;;;;;;;;;;5036413;28;20422;-91
2022/06/06 16:14:51;;;;;;;1.80;1.13;;;;;;;;;;5034842;28;20496;-90
2022/06/06 16:17:28;;;;;;;3.92;1.10;;;;;;;;;;5034499;28;20049;-86
2022/06/06 16:20:34;;;;;;;1.48;1.00;;;;;;;;;;5017759;28;20025;-87
2022/06/06 16:23:14;;;;;;;3.95;1.35;;;;;;;;;;5023314;28;20111;-87